Cherry Point MCAS /Cunningham Field/


Codes: KNKT/
Name: Cherry Point MCAS /Cunningham Field/
City: Cherry Point
Country: United States
Elevation: 29 ft.

Photos at Cherry Point MCAS /Cunningham Field/


   Photos courtesy of SpottingLog. You can add your own sightings and photos by signing up for a free trial today.



160047, 08-Jun-2008
© Tobias Hottinger


Weather at Cherry Point MCAS /Cunningham Field/


Time (UTC)DescriptionTempratureWindCloud coverageVisibilityPressureHumidity
21-Jun-2024 12:00Clear Sky24°C4 mph, E0%10000m1024hPa80%
21-Jun-2024 15:00Clear Sky25°C7 mph, SE8%10000m1024hPa73%
21-Jun-2024 18:00Few Clouds28°C7 mph, SE23%10000m1023hPa63%
21-Jun-2024 21:00Scattered Clouds30°C9 mph, SE37%10000m1020hPa55%
22-Jun-2024 00:00Few Clouds26°C9 mph, SE21%10000m1021hPa78%
22-Jun-2024 03:00Clear Sky23°C4 mph, SE0%10000m1021hPa93%
22-Jun-2024 06:00Clear Sky23°C2 mph, SE1%10000m1021hPa94%
22-Jun-2024 09:00Clear Sky23°C2 mph, S1%10000m1020hPa95%
22-Jun-2024 12:00Clear Sky26°C2 mph, SW1%10000m1021hPa79%
22-Jun-2024 15:00Clear Sky31°C4 mph, SW0%10000m1020hPa54%
22-Jun-2024 18:00Clear Sky32°C9 mph, S3%10000m1018hPa49%
22-Jun-2024 21:00Clear Sky30°C11 mph, S2%10000m1017hPa60%
23-Jun-2024 00:00Clear Sky27°C9 mph, S0%10000m1017hPa78%
23-Jun-2024 03:00Clear Sky25°C9 mph, S0%10000m1017hPa88%
23-Jun-2024 06:00Clear Sky25°C9 mph, SW0%10000m1016hPa88%
23-Jun-2024 09:00Light Rain25°C9 mph, SW2%10000m1016hPa90%
23-Jun-2024 12:00Light Rain27°C9 mph, SW0%10000m1016hPa79%
23-Jun-2024 15:00Clear Sky31°C11 mph, SW2%10000m1015hPa56%
23-Jun-2024 18:00Clear Sky31°C16 mph, S1%10000m1014hPa56%
23-Jun-2024 21:00Clear Sky29°C13 mph, S2%10000m1013hPa64%
24-Jun-2024 00:00Light Rain27°C13 mph, S30%10000m1012hPa80%
24-Jun-2024 03:00Broken Clouds26°C13 mph, SW60%10000m1012hPa85%
24-Jun-2024 06:00Broken Clouds26°C11 mph, SW62%10000m1012hPa83%
24-Jun-2024 09:00Overcast Clouds26°C11 mph, SW100%10000m1011hPa85%
24-Jun-2024 12:00Overcast Clouds27°C9 mph, SW100%10000m1011hPa80%
24-Jun-2024 15:00Overcast Clouds32°C9 mph, SW90%10000m1011hPa59%
24-Jun-2024 18:00Broken Clouds33°C13 mph, S79%10000m1009hPa57%
24-Jun-2024 21:00Moderate Rain24°C13 mph, S94%10000m1008hPa94%
25-Jun-2024 00:00Heavy Intensity Rain25°C11 mph, S98%10000m1010hPa90%
25-Jun-2024 03:00Light Rain25°C11 mph, S100%10000m1010hPa90%
25-Jun-2024 06:00Light Rain25°C4 mph, S97%10000m1010hPa91%
25-Jun-2024 09:00Few Clouds24°C2 mph, NW21%10000m1010hPa96%
25-Jun-2024 12:00Scattered Clouds25°C2 mph, NW31%10000m1012hPa86%
25-Jun-2024 15:00Clear Sky32°C2 mph, NE0%10000m1012hPa56%
25-Jun-2024 18:00Clear Sky33°C9 mph, SE3%10000m1011hPa51%
25-Jun-2024 21:00Broken Clouds31°C7 mph, SE83%10000m1011hPa58%
26-Jun-2024 00:00Overcast Clouds27°C4 mph, SE93%10000m1012hPa77%
26-Jun-2024 03:00Overcast Clouds26°C4 mph, S87%10000m1012hPa87%
26-Jun-2024 06:00Scattered Clouds25°C4 mph, SW48%10000m1012hPa88%
26-Jun-2024 09:00Clear Sky24°C2 mph, W2%10000m1011hPa93%